Terminal Aerodrome Forecast
Issued by NWS Sterling, VA

Current Version | Previous Version | Graphics & Text | Print | Product List | Glossary On
Versions: 1 2 3 4 5 6 7 8 9 10 11 12 13 14 15 16
413
FTUS41 KLWX 160259 AAA
TAFMRB
TAF AMD
KMRB 160259Z 1603/1624 32009G19KT P6SM -RA BKN060 OVC080
     FM160700 31010KT P6SM BKN120
     FM161500 33011G18KT P6SM FEW110
     FM162300 32008KT P6SM FEW250=

USA.gov is the U.S. government's official web portal to all federal, state and local government web resources and services.